Time;durP1;ratioP1;P1;durP2;ratioP2;P2;SDS_P1;SDS_P2;PMS_P1;PMS_P2;Temp;Humidity;BMP_temperature;BMP_pressure;BME280_temperature;BME280_humidity;BME280_pressure;Samples;Min_cycle;Max_cycle;Signal;HPM_P1;HPM_P2
2021/08/26 15:59:02;;;;;;;9.05;6.95;;;;;;;12.45;100.00;95429.63;6180665;22;1373507;-91
2021/08/26 16:01:31;;;;;;;8.38;6.57;;;;;;;12.41;100.00;95418.25;6215282;23;20044;-92
2021/08/26 16:03:57;;;;;;;9.93;6.22;;;;;;;12.57;100.00;95439.31;6215335;23;20055;-91
2021/08/26 16:06:23;;;;;;;8.27;6.10;;;;;;;12.49;100.00;95430.13;6215426;23;20005;-90
2021/08/26 16:08:49;;;;;;;9.00;5.75;;;;;;;12.52;100.00;95442.78;6215395;23;20004;-90
2021/08/26 16:11:15;;;;;;;8.75;6.05;;;;;;;12.36;100.00;95416.25;6215390;23;20332;-91
2021/08/26 16:13:41;;;;;;;12.25;5.65;;;;;;;12.51;100.00;95410.56;6215491;23;20005;-91
2021/08/26 16:16:07;;;;;;;6.68;5.35;;;;;;;12.40;100.00;95411.28;6215239;23;20001;-91
2021/08/26 16:18:33;;;;;;;8.73;5.78;;;;;;;12.42;100.00;95408.09;6215288;23;20384;-91
2021/08/26 16:20:58;;;;;;;9.18;5.20;;;;;;;12.47;100.00;95421.72;6215354;23;20009;-90
2021/08/26 16:23:24;;;;;;;7.63;5.32;;;;;;;12.49;100.00;95429.38;6215431;23;20013;-91
2021/08/26 16:25:49;;;;;;;9.70;6.00;;;;;;;12.51;100.00;95427.66;6215236;23;20005;-90
2021/08/26 16:28:15;;;;;;;9.63;7.05;;;;;;;12.47;100.00;95440.03;6216618;23;20000;-91
2021/08/26 16:30:41;;;;;;;7.90;6.72;;;;;;;12.36;98.47;95429.09;6216439;23;20000;-91
2021/08/26 16:33:07;;;;;;;7.10;6.20;;;;;;;12.32;100.00;95413.00;6215544;23;20027;-90
2021/08/26 16:35:39;;;;;;;7.72;6.28;;;;;;;12.30;100.00;95432.56;6215216;23;20004;-90
2021/08/26 16:38:05;;;;;;;9.70;6.38;;;;;;;12.34;100.00;95445.91;6215197;23;20456;-92
2021/08/26 16:40:31;;;;;;;8.27;5.78;;;;;;;12.31;100.00;95439.50;6215228;23;20001;-91
2021/08/26 16:42:57;;;;;;;6.05;5.22;;;;;;;12.27;100.00;95416.47;6215272;23;20012;-91
2021/08/26 16:45:23;;;;;;;9.10;5.85;;;;;;;12.40;100.00;95446.69;6215188;23;20004;-90
2021/08/26 16:47:49;;;;;;;8.30;5.80;;;;;;;12.28;100.00;95429.56;6215376;23;20004;-91
2021/08/26 16:50:16;;;;;;;9.07;6.63;;;;;;;12.39;100.00;95436.28;6215198;23;20000;-91
2021/08/26 16:52:42;;;;;;;10.65;6.63;;;;;;;12.35;100.00;95424.88;6215378;23;20009;-91
2021/08/26 16:55:10;;;;;;;9.38;6.50;;;;;;;12.32;100.00;95423.91;6215254;23;20024;-93
2021/08/26 16:57:35;;;;;;;9.20;6.40;;;;;;;12.35;100.00;95431.06;6215014;23;20005;-92
2021/08/26 17:00:03;;;;;;;9.48;6.18;;;;;;;12.30;100.00;95437.25;6215397;23;20139;-91
2021/08/26 17:02:28;;;;;;;7.25;6.07;;;;;;;12.29;100.00;95428.34;6216625;23;20076;-91
2021/08/26 17:04:54;;;;;;;8.38;6.18;;;;;;;12.26;100.00;95423.88;6215135;23;20034;-91
2021/08/26 17:07:19;;;;;;;7.72;6.78;;;;;;;12.08;100.00;95394.38;6214916;23;20031;-91
2021/08/26 17:09:45;;;;;;;11.52;8.15;;;;;;;12.23;100.00;95400.34;6215173;23;20008;-90
2021/08/26 17:12:11;;;;;;;8.35;7.28;;;;;;;12.33;100.00;95422.66;6215408;23;20016;-91
2021/08/26 17:14:36;;;;;;;9.60;6.45;;;;;;;12.38;100.00;95427.38;6215337;23;20036;-92
2021/08/26 17:17:02;;;;;;;8.32;7.15;;;;;;;12.29;100.00;95422.88;6215383;23;20376;-90
2021/08/26 17:19:28;;;;;;;11.55;8.85;;;;;;;12.27;100.00;95433.53;6216652;23;20031;-90
2021/08/26 17:21:53;;;;;;;10.77;7.30;;;;;;;12.20;100.00;95414.97;6217017;23;20015;-91
2021/08/26 17:24:20;;;;;;;12.07;8.20;;;;;;;12.29;100.00;95416.69;6216930;23;20012;-91
2021/08/26 17:26:45;;;;;;;9.75;8.13;;;;;;;12.28;100.00;95445.91;6217028;23;20043;-91
2021/08/26 17:29:11;;;;;;;10.35;7.82;;;;;;;12.11;100.00;95415.16;6216487;23;20005;-91
2021/08/26 17:31:36;;;;;;;11.15;8.00;;;;;;;12.20;100.00;95427.84;6216648;23;20008;-91
2021/08/26 17:34:03;;;;;;;12.35;9.23;;;;;;;12.05;100.00;95408.97;6216845;23;20009;-91
2021/08/26 17:36:28;;;;;;;11.70;8.82;;;;;;;12.15;100.00;95428.56;6216646;23;20086;-91
2021/08/26 17:38:54;;;;;;;12.90;10.05;;;;;;;12.17;100.00;95431.53;6217121;23;20414;-90
2021/08/26 17:41:19;;;;;;;12.05;10.00;;;;;;;12.25;100.00;95435.25;6216793;23;20004;-90
2021/08/26 17:43:45;;;;;;;13.40;11.02;;;;;;;12.19;100.00;95431.75;6216702;23;20020;-91
2021/08/26 17:46:11;;;;;;;15.38;11.30;;;;;;;12.25;100.00;95432.53;6216800;23;20007;-91
2021/08/26 17:49:10;;;;;;;22.73;13.93;;;;;;;12.50;100.00;95450.66;6216569;23;20108;-91
2021/08/26 17:51:36;;;;;;;23.67;14.27;;;;;;;12.44;100.00;95433.56;6216733;23;20730;-91
2021/08/26 17:54:01;;;;;;;24.55;15.32;;;;;;;12.28;100.00;95445.91;6216647;23;20005;-91
2021/08/26 17:56:27;;;;;;;22.45;14.77;;;;;;;12.26;100.00;95456.56;6216587;23;20007;-91
2021/08/26 17:58:52;;;;;;;20.33;14.57;;;;;;;12.21;100.00;95440.94;6216236;23;20441;-91
2021/08/26 18:01:18;;;;;;;19.45;13.68;;;;;;;12.30;100.00;95445.41;6216657;23;20000;-91
2021/08/26 18:03:43;;;;;;;17.17;13.45;;;;;;;12.30;100.00;95456.31;6216733;23;20010;-91
2021/08/26 18:06:08;;;;;;;17.42;10.65;;;;;;;12.22;100.00;95445.16;6216583;23;20010;-92
2021/08/26 18:08:34;;;;;;;11.73;9.98;;;;;;;12.26;100.00;95455.81;6216622;23;20072;-91
2021/08/26 18:11:00;;;;;;;11.70;8.98;;;;;;;12.31;100.00;95446.91;6216857;23;20384;-90
2021/08/26 18:13:28;;;;;;;10.10;8.48;;;;;;;12.33;100.00;95452.59;6216478;23;20433;-90
2021/08/26 18:15:54;;;;;;;13.73;8.85;;;;;;;12.26;100.00;95453.84;6216339;23;20494;-91
2021/08/26 18:18:20;;;;;;;12.18;8.98;;;;;;;12.28;100.00;95467.69;6216363;23;20001;-91
2021/08/26 18:20:45;;;;;;;10.63;8.63;;;;;;;12.19;100.00;95457.00;6216452;23;20444;-91
2021/08/26 18:23:11;;;;;;;10.65;8.38;;;;;;;12.19;100.00;95458.97;6216618;23;20095;-91
2021/08/26 18:25:37;;;;;;;10.40;7.75;;;;;;;12.28;100.00;95477.84;6216235;23;20000;-90
2021/08/26 18:28:03;;;;;;;9.57;8.02;;;;;;;12.22;100.00;95463.47;6216112;23;20749;-91
2021/08/26 18:30:28;;;;;;;9.48;7.65;;;;;;;12.25;100.00;95465.97;6216067;23;20066;-92
2021/08/26 18:32:54;;;;;;;8.07;7.28;;;;;;;12.20;100.00;95455.78;6216828;23;20012;-92
2021/08/26 18:35:20;;;;;;;8.63;7.72;;;;;;;12.38;100.00;95470.19;6216011;23;20004;-92
2021/08/26 18:37:45;;;;;;;11.05;7.90;;;;;;;12.48;100.00;95474.94;6216183;23;20004;-91
2021/08/26 18:40:12;;;;;;;10.48;7.88;;;;;;;12.32;100.00;95462.03;6216164;23;20008;-91
2021/08/26 18:42:38;;;;;;;9.98;7.53;;;;;;;12.22;100.00;95450.59;6216200;23;20009;-90
2021/08/26 18:45:04;;;;;;;10.05;7.85;;;;;;;12.28;100.00;95466.94;6216348;23;20001;-91
2021/08/26 18:47:30;;;;;;;9.85;8.85;;;;;;;12.16;100.00;95458.00;6216375;23;20011;-90
2021/08/26 18:49:56;;;;;;;10.68;8.82;;;;;;;12.26;100.00;95483.78;6215906;23;20429;-91
2021/08/26 18:52:22;;;;;;;12.30;9.20;;;;;;;12.11;100.00;95466.16;6215901;23;20013;-93
2021/08/26 18:54:49;;;;;;;11.25;9.35;;;;;;;12.05;100.00;95463.41;6215989;23;20032;-92
2021/08/26 18:57:18;;;;;;;13.82;10.00;;;;;;;12.14;100.00;95474.06;6215984;23;20027;-91
2021/08/26 18:59:45;;;;;;;13.63;10.20;;;;;;;12.23;100.00;95475.84;6215613;23;20016;-91
2021/08/26 19:02:10;;;;;;;12.95;10.48;;;;;;;12.05;100.00;95466.13;6215917;23;20026;-91
2021/08/26 19:04:36;;;;;;;11.63;9.63;;;;;;;12.11;100.00;95468.88;6215935;23;20421;-90
2021/08/26 19:07:04;;;;;;;12.18;10.55;;;;;;;12.16;100.00;95462.69;6217209;23;20011;-91
2021/08/26 19:09:29;;;;;;;11.55;9.98;;;;;;;12.15;100.00;95470.13;6215753;23;20008;-91
2021/08/26 19:11:55;;;;;;;11.60;10.30;;;;;;;12.25;100.00;95492.41;6217330;23;20005;-89
2021/08/26 19:14:21;;;;;;;12.88;10.13;;;;;;;12.29;100.00;95492.94;6215776;23;20005;-91
2021/08/26 19:16:47;;;;;;;14.15;10.52;;;;;;;12.21;100.00;95481.03;6216945;23;20007;-91
2021/08/26 19:19:13;;;;;;;12.77;11.00;;;;;;;12.27;100.00;95500.84;6215731;23;20091;-91
2021/08/26 19:21:39;;;;;;;12.82;11.13;;;;;;;12.16;100.00;95487.19;6215762;23;20020;-91
2021/08/26 19:24:05;;;;;;;11.98;10.60;;;;;;;12.18;100.00;95492.88;6215811;23;20008;-91
2021/08/26 19:26:31;;;;;;;12.35;10.30;;;;;;;12.06;100.00;95478.50;6215716;23;20080;-91
2021/08/26 19:28:57;;;;;;;12.40;9.80;;;;;;;12.11;100.00;95490.63;6215501;23;20035;-91
2021/08/26 19:31:23;;;;;;;10.82;8.98;;;;;;;12.17;100.00;95483.97;6216053;23;20024;-91
2021/08/26 19:33:49;;;;;;;10.32;8.85;;;;;;;12.22;100.00;95501.56;6215853;23;20048;-90
2021/08/26 19:36:14;;;;;;;12.75;10.07;;;;;;;12.25;100.00;95508.75;6215760;23;20001;-91
2021/08/26 19:39:06;;;;;;;10.88;9.43;;;;;;;12.25;100.00;95512.25;6215706;23;20009;-91
2021/08/26 19:41:31;;;;;;;13.25;9.20;;;;;;;12.15;100.00;95494.63;6215426;23;20004;-91
2021/08/26 19:43:57;;;;;;;13.35;9.95;;;;;;;12.14;100.00;95500.53;6215552;23;20055;-92
2021/08/26 19:46:23;;;;;;;12.75;9.50;;;;;;;12.02;100.00;95486.88;6215751;23;20058;-91
2021/08/26 19:48:49;;;;;;;12.52;9.52;;;;;;;12.07;100.00;95482.69;6215491;23;20005;-91
2021/08/26 19:51:15;;;;;;;11.27;9.30;;;;;;;11.96;100.00;95485.38;6215606;23;20119;-92
2021/08/26 19:53:41;;;;;;;10.48;8.05;;;;;;;12.03;100.00;95488.34;6215736;23;20337;-92
2021/08/26 19:56:07;;;;;;;10.50;7.97;;;;;;;11.92;100.00;95482.88;6215542;23;20005;-90
2021/08/26 19:58:32;;;;;;;11.20;8.40;;;;;;;11.85;100.00;95477.88;6215327;23;20016;-92
2021/08/26 20:00:58;;;;;;;9.32;7.35;;;;;;;11.88;100.00;95490.53;6215574;23;20009;-92
2021/08/26 20:03:23;;;;;;;8.15;6.82;;;;;;;11.78;100.00;95473.63;6215566;23;20401;-91
2021/08/26 20:05:49;;;;;;;9.40;7.25;;;;;;;11.83;100.00;95479.63;6215732;23;20059;-90
2021/08/26 20:08:14;;;;;;;9.10;6.30;;;;;;;11.89;100.00;95491.28;6215350;23;20008;-91
2021/08/26 20:10:40;;;;;;;8.30;6.47;;;;;;;11.80;100.00;95482.03;6215497;23;20008;-91
2021/08/26 20:13:06;;;;;;;11.07;6.82;;;;;;;11.71;100.00;95473.31;6216822;23;20030;-91
2021/08/26 20:15:31;;;;;;;10.02;7.53;;;;;;;11.74;100.00;95488.69;6215182;23;20012;-91
2021/08/26 20:17:57;;;;;;;10.32;6.68;;;;;;;11.72;100.00;95485.72;6215133;23;20004;-91
2021/08/26 20:20:22;;;;;;;9.18;7.68;;;;;;;11.79;100.00;95496.88;6215216;23;20079;-91
2021/08/26 20:22:49;;;;;;;11.88;8.55;;;;;;;11.72;100.00;95489.19;6215499;23;20004;-92
2021/08/26 20:25:15;;;;;;;10.13;8.05;;;;;;;11.77;100.00;95501.28;6215411;23;20001;-90
2021/08/26 20:27:42;;;;;;;9.25;7.55;;;;;;;11.74;100.00;95491.41;6215353;23;20015;-91
2021/08/26 20:30:11;;;;;;;7.88;6.85;;;;;;;11.89;100.00;95507.59;6215248;23;20011;-91
2021/08/26 20:32:36;;;;;;;11.82;7.30;;;;;;;11.93;100.00;95486.31;6215458;23;20608;-90
2021/08/26 20:35:02;;;;;;;7.80;6.13;;;;;;;12.01;100.00;95490.09;6215391;23;20066;-90
2021/08/26 20:37:28;;;;;;;10.65;7.20;;;;;;;11.90;100.00;95484.59;6215535;23;20484;-90
2021/08/26 20:39:53;;;;;;;11.52;7.88;;;;;;;11.86;100.00;95476.66;6215458;23;20716;-91
2021/08/26 20:42:20;;;;;;;10.63;8.23;;;;;;;11.89;100.00;95477.66;6215537;23;20433;-90
2021/08/26 20:44:47;;;;;;;9.63;7.90;;;;;;;11.82;100.00;95456.34;6215618;23;20007;-91
2021/08/26 20:47:12;;;;;;;10.88;8.57;;;;;;;11.95;100.00;95489.31;6215544;23;20459;-91
2021/08/26 20:49:38;;;;;;;11.07;7.72;;;;;;;11.82;100.00;95467.22;6215338;23;20087;-91
2021/08/26 20:52:03;;;;;;;10.45;8.25;;;;;;;11.89;100.00;95483.84;6215440;23;20032;-91
2021/08/26 20:54:29;;;;;;;11.80;8.45;;;;;;;11.84;100.00;95489.25;6216778;23;20036;-91
2021/08/26 20:56:54;;;;;;;8.63;7.30;;;;;;;11.84;100.00;95486.53;6216958;23;20004;-92
2021/08/26 20:59:20;;;;;;;9.18;7.45;;;;;;;11.84;100.00;95495.44;6216591;23;20020;-92
2021/08/26 21:01:46;;;;;;;12.93;8.07;;;;;;;11.89;100.00;95497.47;6217098;23;20008;-91
2021/08/26 21:04:11;;;;;;;10.27;8.02;;;;;;;11.79;100.00;95485.25;6216982;23;20060;-92
2021/08/26 21:06:37;;;;;;;10.38;7.45;;;;;;;11.82;100.00;95497.16;6217114;23;20012;-91
2021/08/26 21:09:04;;;;;;;12.27;9.52;;;;;;;11.81;100.00;95512.69;6216987;23;20004;-91
2021/08/26 21:11:30;;;;;;;13.65;9.60;;;;;;;11.82;100.00;95508.03;6217088;23;20019;-90
2021/08/26 21:13:57;;;;;;;14.30;10.68;;;;;;;11.80;100.00;95511.22;6217229;23;20047;-90
2021/08/26 21:16:24;;;;;;;18.58;12.38;;;;;;;11.94;100.00;95532.13;6216982;23;20004;-91
2021/08/26 21:18:49;;;;;;;19.80;13.27;;;;;;;11.99;100.00;95547.72;6216934;23;20012;-90
2021/08/26 21:21:15;;;;;;;17.83;13.48;;;;;;;11.93;100.00;95527.91;6216934;23;20005;-91
2021/08/26 21:23:40;;;;;;;18.30;14.60;;;;;;;11.97;100.00;95508.63;6216976;23;20008;-90
2021/08/26 21:26:06;;;;;;;14.68;10.55;;;;;;;12.07;100.00;95507.19;6216963;23;20001;-91
2021/08/26 21:28:31;;;;;;;11.88;8.40;;;;;;;12.21;100.00;95506.28;6216863;23;20016;-92
2021/08/26 21:30:57;;;;;;;13.40;9.57;;;;;;;12.23;100.00;95503.78;6216748;23;20009;-91
2021/08/26 21:33:22;;;;;;;10.50;9.07;;;;;;;12.25;100.00;95486.97;6216990;23;20055;-91
2021/08/26 21:35:49;;;;;;;13.80;9.90;;;;;;;12.36;100.00;95497.94;6216707;23;20008;-92
2021/08/26 21:38:15;;;;;;;14.70;10.27;;;;;;;12.14;100.00;95492.38;6216816;23;20012;-92
2021/08/26 21:40:41;;;;;;;13.00;9.77;;;;;;;12.02;100.00;95484.16;6216746;23;20015;-92
2021/08/26 21:43:07;;;;;;;13.35;9.70;;;;;;;12.23;100.00;95517.41;6216837;23;20008;-90
2021/08/26 21:45:32;;;;;;;12.65;9.65;;;;;;;12.08;100.00;95486.91;6216676;23;20100;-91
2021/08/26 21:47:58;;;;;;;12.43;10.07;;;;;;;12.10;100.00;95494.59;6216736;23;20008;-91
2021/08/26 21:50:23;;;;;;;10.77;9.32;;;;;;;11.93;100.00;95514.31;6216589;23;20066;-91
2021/08/26 21:52:49;;;;;;;12.07;9.93;;;;;;;12.07;100.00;95546.03;6216757;23;20008;-92
2021/08/26 21:55:15;;;;;;;12.38;9.48;;;;;;;12.05;100.00;95545.78;6216533;23;20032;-90
2021/08/26 21:57:40;;;;;;;11.65;9.15;;;;;;;11.85;100.00;95528.84;6216213;23;20364;-90
2021/08/26 22:00:12;;;;;;;12.18;9.60;;;;;;;11.96;100.00;95561.56;6216464;23;20317;-90
2021/08/26 22:02:37;;;;;;;12.38;10.10;;;;;;;11.95;100.00;95555.38;6216513;23;20012;-90
2021/08/26 22:05:04;;;;;;;12.63;9.85;;;;;;;11.88;100.00;95544.94;6216345;23;20004;-92
2021/08/26 22:07:30;;;;;;;14.27;10.73;;;;;;;11.91;100.00;95554.09;6216531;23;20005;-92
2021/08/26 22:09:55;;;;;;;12.43;9.85;;;;;;;11.90;100.00;95539.75;6216356;23;20015;-91
2021/08/26 22:12:21;;;;;;;11.70;10.48;;;;;;;12.02;100.00;95559.59;6216463;23;20008;-91
2021/08/26 22:14:47;;;;;;;10.27;9.23;;;;;;;11.93;100.00;95536.06;6216320;23;20005;-90
2021/08/26 22:17:13;;;;;;;10.60;9.10;;;;;;;12.03;100.00;95542.78;6216496;23;20015;-92
2021/08/26 22:19:38;;;;;;;11.88;8.57;;;;;;;12.08;100.00;95552.22;6216501;23;20001;-92
2021/08/26 22:22:05;;;;;;;11.43;9.07;;;;;;;12.00;100.00;95565.53;6217890;23;20055;-91
2021/08/26 22:24:31;;;;;;;11.70;8.52;;;;;;;11.92;100.00;95550.16;6216112;23;20028;-92
2021/08/26 22:26:56;;;;;;;13.55;9.48;;;;;;;11.95;100.00;95555.38;6216238;23;20394;-92
2021/08/26 22:29:22;;;;;;;10.88;8.23;;;;;;;12.00;100.00;95560.09;6216290;23;20012;-90
2021/08/26 22:31:48;;;;;;;9.80;8.30;;;;;;;12.02;100.00;95554.91;6216185;23;20429;-91
2021/08/26 22:34:14;;;;;;;12.23;8.27;;;;;;;11.93;100.00;95546.19;6216215;23;20004;-92
2021/08/26 22:36:39;;;;;;;9.25;8.27;;;;;;;11.92;100.00;95540.00;6216089;23;20043;-91
2021/08/26 22:39:05;;;;;;;11.15;8.93;;;;;;;11.96;100.00;95561.56;6216136;23;20039;-91
2021/08/26 22:41:31;;;;;;;10.55;8.25;;;;;;;11.92;100.00;95559.06;6216313;23;20001;-91
2021/08/26 22:43:57;;;;;;;10.02;8.32;;;;;;;11.99;100.00;95568.75;6216235;23;20333;-91
2021/08/26 22:46:23;;;;;;;10.90;8.52;;;;;;;11.90;100.00;95556.06;6216091;23;20004;-90
2021/08/26 22:48:51;;;;;;;11.05;8.20;;;;;;;11.96;100.00;95564.28;6216211;23;20066;-92
2021/08/26 22:51:28;;;;;;;10.30;8.45;;;;;;;11.79;100.00;95545.09;6216302;23;20337;-90
2021/08/26 22:53:53;;;;;;;9.82;8.82;;;;;;;11.61;100.00;95513.59;6216066;23;20080;-92
2021/08/26 22:56:19;;;;;;;10.88;9.27;;;;;;;11.73;100.00;95547.78;6215934;23;20028;-91
2021/08/26 22:58:44;;;;;;;10.95;8.57;;;;;;;11.68;100.00;95545.03;6215785;23;20020;-91
2021/08/26 23:01:10;;;;;;;11.43;9.20;;;;;;;11.84;100.00;95573.59;6216087;23;20349;-90
2021/08/26 23:03:36;;;;;;;11.32;9.00;;;;;;;11.64;100.00;95558.09;6215910;23;20015;-90
2021/08/26 23:06:02;;;;;;;13.63;9.40;;;;;;;11.79;100.00;95564.13;6215976;23;20016;-91
2021/08/26 23:08:32;;;;;;;11.25;8.30;;;;;;;11.85;100.00;95558.75;6216162;23;20008;-92
2021/08/26 23:10:58;;;;;;;10.82;8.10;;;;;;;11.85;100.00;95545.91;6216006;23;20011;-90
2021/08/26 23:13:23;;;;;;;9.63;7.97;;;;;;;11.80;100.00;95552.75;6215804;23;20004;-90
2021/08/26 23:15:49;;;;;;;10.50;8.00;;;;;;;11.77;100.00;95548.31;6215350;23;20437;-91
2021/08/26 23:18:14;;;;;;;9.25;7.85;;;;;;;11.71;100.00;95549.47;6215761;23;20008;-90
2021/08/26 23:20:40;;;;;;;11.68;8.05;;;;;;;11.74;100.00;95543.81;6215996;23;20004;-92
2021/08/26 23:23:06;;;;;;;10.63;8.48;;;;;;;11.73;100.00;95547.78;6215812;23;20019;-91
2021/08/26 23:25:31;;;;;;;10.35;8.27;;;;;;;11.77;100.00;95542.09;6215822;23;20007;-91
2021/08/26 23:27:57;;;;;;;13.15;8.73;;;;;;;11.67;100.00;95527.97;6216204;23;20000;-91
2021/08/26 23:30:22;;;;;;;9.95;8.20;;;;;;;11.75;100.00;95541.84;6215870;23;20008;-91
2021/08/26 23:32:48;;;;;;;9.77;8.00;;;;;;;11.58;100.00;95532.84;6215786;23;20001;-91
2021/08/26 23:35:13;;;;;;;11.00;8.65;;;;;;;11.64;100.00;95549.94;6215811;23;20001;-91
2021/08/26 23:37:40;;;;;;;10.52;8.68;;;;;;;11.62;100.00;95555.88;6215906;23;20004;-92
2021/08/26 23:40:06;;;;;;;10.95;8.73;;;;;;;11.61;100.00;95557.09;6215783;23;20004;-92
2021/08/26 23:42:32;;;;;;;10.82;8.68;;;;;;;11.66;100.00;95553.66;6215710;23;20039;-91
2021/08/26 23:44:57;;;;;;;10.40;7.80;;;;;;;11.67;100.00;95555.16;6215539;23;20451;-90
2021/08/26 23:47:23;;;;;;;10.60;8.27;;;;;;;11.63;100.00;95551.16;6215433;23;20009;-92
2021/08/26 23:49:48;;;;;;;9.52;7.50;;;;;;;11.56;100.00;95544.19;6215636;23;20015;-91
2021/08/26 23:52:14;;;;;;;8.70;7.80;;;;;;;11.59;100.00;95550.63;6215520;23;20015;-92
2021/08/26 23:54:40;;;;;;;10.00;7.47;;;;;;;11.50;100.00;95543.38;6215845;23;20008;-94
2021/08/26 23:57:05;;;;;;;8.52;7.07;;;;;;;11.44;100.00;95537.91;6215703;23;20462;-92
2021/08/26 23:59:31;;;;;;;8.32;6.78;;;;;;;11.38;100.00;95528.97;6215215;23;20086;-90
